createdAt,value
2022-12-14T00:01:17.744Z,99149.41
2022-12-14T00:03:45.404Z,99138.13
2022-12-14T00:06:14.577Z,99128.59
2022-12-14T00:08:42.009Z,99122.50
2022-12-14T00:11:09.183Z,99124.25
2022-12-14T00:13:36.073Z,99112.97
2022-12-14T00:16:08.134Z,99101.69
2022-12-14T00:18:34.943Z,99102.56
2022-12-14T00:21:09.891Z,99094.75
2022-12-14T00:23:39.276Z,99088.69
2022-12-14T00:26:10.934Z,99082.59
2022-12-14T00:28:37.977Z,99073.94
2022-12-14T00:31:04.919Z,99079.97
2022-12-14T00:33:31.496Z,99082.56
2022-12-14T00:35:58.092Z,99093.00
2022-12-14T00:38:24.903Z,99082.59
2022-12-14T00:40:51.598Z,99091.28
2022-12-14T00:43:17.972Z,99092.09
2022-12-14T00:45:45.092Z,99078.22
2022-12-14T00:48:12.736Z,99080.84
2022-12-14T00:50:39.112Z,99093.00
2022-12-14T00:53:06.049Z,99081.69
2022-12-14T00:55:43.532Z,99077.38
2022-12-14T00:58:12.647Z,99066.13
2022-12-14T01:00:39.693Z,99075.66
2022-12-14T01:03:07.287Z,99073.91
2022-12-14T01:05:34.629Z,99072.19
2022-12-14T01:08:01.143Z,99071.31
2022-12-14T01:10:27.865Z,99068.72
2022-12-14T01:12:54.206Z,99055.72
2022-12-14T01:15:21.030Z,99045.28
2022-12-14T01:17:47.411Z,99036.63
2022-12-14T01:20:14.020Z,99040.09
2022-12-14T01:22:40.416Z,99037.50
2022-12-14T01:25:06.956Z,99040.09
2022-12-14T01:27:33.304Z,99045.31
2022-12-14T01:29:59.743Z,99042.69
2022-12-14T01:32:26.144Z,99046.16
2022-12-14T01:34:52.512Z,99042.69
2022-12-14T01:37:18.860Z,99044.44
2022-12-14T01:39:46.535Z,99045.31
2022-12-14T01:42:14.837Z,99035.75
2022-12-14T01:44:44.304Z,99040.94
2022-12-14T01:47:20.070Z,99029.66
2022-12-14T01:49:56.195Z,99034.00
2022-12-14T01:52:36.743Z,99029.66
2022-12-14T01:55:09.261Z,99030.53
2022-12-14T01:57:50.703Z,99032.28
2022-12-14T02:00:17.964Z,99017.50
2022-12-14T02:02:51.610Z,99016.66
2022-12-14T02:05:21.044Z,99021.88
2022-12-14T02:07:50.415Z,99018.38
2022-12-14T02:10:17.537Z,99018.38
2022-12-14T02:12:47.888Z,99012.31
2022-12-14T02:15:15.517Z,99000.16
2022-12-14T02:17:47.039Z,99004.50
2022-12-14T02:20:16.077Z,99011.47
2022-12-14T02:22:51.441Z,99001.91
2022-12-14T02:25:49.229Z,98995.84
2022-12-14T02:28:46.008Z,99001.91
2022-12-14T02:31:21.396Z,98985.41
2022-12-14T02:34:14.926Z,98981.09
2022-12-14T02:37:04.977Z,98973.28
2022-12-14T02:39:58.907Z,98976.72
2022-12-14T02:42:37.480Z,98981.94
2022-12-14T02:45:26.963Z,98981.94
2022-12-14T02:48:14.403Z,98973.25
2022-12-14T02:51:12.375Z,98973.25
2022-12-14T02:54:04.236Z,98968.06
2022-12-14T02:56:43.894Z,98971.53
2022-12-14T02:59:11.343Z,98966.34
2022-12-14T03:01:39.491Z,98959.38
2022-12-14T03:04:06.659Z,98954.19
2022-12-14T03:06:33.148Z,98937.69
2022-12-14T03:09:08.573Z,98935.09
2022-12-14T03:11:37.739Z,98935.94
2022-12-14T03:14:27.270Z,98930.72
2022-12-14T03:16:56.961Z,98937.66
2022-12-14T03:19:32.385Z,98936.78
2022-12-14T03:22:07.487Z,98942.91
2022-12-14T03:24:43.556Z,98934.19
2022-12-14T03:27:20.294Z,98924.66
2022-12-14T03:30:00.449Z,98924.66
2022-12-14T03:32:30.928Z,98920.31
2022-12-14T03:35:04.955Z,98919.47
2022-12-14T03:37:39.576Z,98916.84
2022-12-14T03:40:11.697Z,98904.69
2022-12-14T03:42:49.492Z,98909.91
2022-12-14T03:45:25.952Z,98917.72
2022-12-14T03:48:01.058Z,98929.88
2022-12-14T03:50:44.933Z,98926.38
2022-12-14T03:53:39.379Z,98916.84
2022-12-14T03:56:28.853Z,98914.25
2022-12-14T03:59:02.602Z,98909.06
2022-12-14T04:01:59.487Z,98894.28
2022-12-14T04:04:54.287Z,98892.53
2022-12-14T04:07:32.796Z,98889.94
2022-12-14T04:10:33.172Z,98882.13
2022-12-14T04:13:24.788Z,98889.91
2022-12-14T04:16:14.355Z,98889.06
2022-12-14T04:19:01.773Z,98892.53
2022-12-14T04:21:47.968Z,98907.28
2022-12-14T04:24:45.435Z,98904.59
2022-12-14T04:27:21.289Z,98919.34
2022-12-14T04:29:56.879Z,98918.41
2022-12-14T04:32:38.362Z,98901.91
2022-12-14T04:35:18.427Z,98901.00
2022-12-14T04:37:50.775Z,98901.75
2022-12-14T04:40:22.691Z,98907.00
2022-12-14T04:43:05.625Z,98893.06
2022-12-14T04:45:39.396Z,98896.59
2022-12-14T04:48:31.719Z,98897.41
2022-12-14T04:51:22.896Z,98888.72
2022-12-14T04:53:55.831Z,98880.94
2022-12-14T04:56:30.041Z,98891.34
2022-12-14T04:58:56.549Z,98892.22
2022-12-14T05:01:32.950Z,98893.91
2022-12-14T05:04:12.516Z,98899.91
2022-12-14T05:07:01.126Z,98894.69
2022-12-14T05:09:31.688Z,98891.09
2022-12-14T05:12:06.847Z,98892.81
2022-12-14T05:14:49.720Z,98897.25
2022-12-14T05:17:16.609Z,98893.94
2022-12-14T05:19:50.614Z,98892.00
2022-12-14T05:22:18.041Z,98894.69
2022-12-14T05:24:44.379Z,98887.91
2022-12-14T05:27:10.728Z,98893.97
2022-12-14T05:29:37.081Z,98884.28
2022-12-14T05:32:04.443Z,98875.72
2022-12-14T05:34:31.064Z,98863.53
2022-12-14T05:36:58.046Z,98857.63
2022-12-14T05:39:24.396Z,98838.44
2022-12-14T05:41:50.772Z,98838.44
2022-12-14T05:44:17.280Z,98835.03
2022-12-14T05:46:43.729Z,98841.13
2022-12-14T05:49:10.660Z,98849.75
2022-12-14T05:51:37.016Z,98840.25
2022-12-14T05:54:03.553Z,98842.81
2022-12-14T05:56:29.891Z,98832.41
2022-12-14T05:58:56.341Z,98831.56
2022-12-14T06:01:23.141Z,98819.50
2022-12-14T06:03:52.526Z,98812.53
2022-12-14T06:06:18.959Z,98824.69
2022-12-14T06:08:46.050Z,98813.50
2022-12-14T06:11:18.899Z,98804.81
2022-12-14T06:13:45.683Z,98793.53
2022-12-14T06:16:23.749Z,98791.84
2022-12-14T06:18:56.008Z,98779.72
2022-12-14T06:21:26.307Z,98781.50
2022-12-14T06:23:54.245Z,98779.78
2022-12-14T06:26:21.622Z,98786.75
2022-12-14T06:28:48.059Z,98779.78
2022-12-14T06:31:16.926Z,98767.59
2022-12-14T06:33:43.808Z,98767.63
2022-12-14T06:36:23.622Z,98765.03
2022-12-14T06:38:51.219Z,98768.50
2022-12-14T06:41:18.156Z,98754.66
2022-12-14T06:43:44.555Z,98753.69
2022-12-14T06:46:18.215Z,98747.66
2022-12-14T06:48:52.742Z,98741.53
2022-12-14T06:51:20.471Z,98753.75
2022-12-14T06:53:50.461Z,98757.16
2022-12-14T06:56:18.003Z,98760.66
2022-12-14T06:58:44.908Z,98754.56
2022-12-14T07:01:17.667Z,98749.41
2022-12-14T07:03:48.399Z,98752.03
2022-12-14T07:06:14.995Z,98750.31
2022-12-14T07:08:41.464Z,98753.78
2022-12-14T07:11:10.480Z,98756.34
2022-12-14T07:13:37.764Z,98758.97
2022-12-14T07:16:06.102Z,98761.56
2022-12-14T07:18:33.339Z,98763.28
2022-12-14T07:21:02.645Z,98768.47
2022-12-14T07:23:31.516Z,98759.81
2022-12-14T07:26:03.317Z,98766.75
2022-12-14T07:28:30.372Z,98768.44
2022-12-14T07:30:58.506Z,98761.41
2022-12-14T07:33:26.292Z,98773.56
2022-12-14T07:36:01.528Z,98778.38
2022-12-14T07:38:27.880Z,98793.00
2022-12-14T07:40:54.207Z,98805.78
2022-12-14T07:43:21.566Z,98796.19
2022-12-14T07:45:47.922Z,98798.00
2022-12-14T07:48:14.357Z,98796.25
2022-12-14T07:50:40.767Z,98800.03
2022-12-14T07:53:07.125Z,98800.88
2022-12-14T07:55:35.085Z,98793.03
2022-12-14T07:58:01.452Z,98781.03
2022-12-14T08:00:27.871Z,98786.47
2022-12-14T08:02:57.053Z,98790.06
2022-12-14T08:05:23.421Z,98783.19
2022-12-14T08:07:49.754Z,98774.38
2022-12-14T08:10:16.282Z,98761.22
2022-12-14T08:12:42.656Z,98765.56
2022-12-14T08:15:09.293Z,98761.47
2022-12-14T08:17:35.659Z,98765.72
2022-12-14T08:20:02.090Z,98754.50
2022-12-14T08:22:28.440Z,98763.13
2022-12-14T08:24:54.834Z,98750.09
2022-12-14T08:27:21.247Z,98751.06
2022-12-14T08:29:47.851Z,98743.97
2022-12-14T08:32:14.382Z,98754.41
2022-12-14T08:34:40.734Z,98744.81
2022-12-14T08:37:07.162Z,98761.34
2022-12-14T08:39:33.540Z,98764.72
2022-12-14T08:41:59.975Z,98768.22
2022-12-14T08:44:26.534Z,98770.00
2022-12-14T08:46:53.201Z,98767.28
2022-12-14T08:49:19.792Z,98761.00
2022-12-14T08:51:46.212Z,98767.06
2022-12-14T08:54:12.745Z,98760.06
2022-12-14T08:56:39.486Z,98755.66
2022-12-14T08:59:05.946Z,98748.81
2022-12-14T09:01:34.462Z,98733.13
2022-12-14T09:04:07.604Z,98731.34
2022-12-14T09:06:36.917Z,98741.50
2022-12-14T09:09:04.700Z,98749.03
2022-12-14T09:11:31.067Z,98754.44
2022-12-14T09:13:58.103Z,98762.66
2022-12-14T09:16:28.876Z,98768.19
2022-12-14T09:18:55.570Z,98768.00
2022-12-14T09:21:22.274Z,98766.28
2022-12-14T09:23:52.630Z,98775.13
2022-12-14T09:26:23.578Z,98759.44
2022-12-14T09:28:55.144Z,98761.28
2022-12-14T09:31:23.976Z,98762.91
2022-12-14T09:33:50.936Z,98771.81
2022-12-14T09:36:20.228Z,98768.66
2022-12-14T09:38:51.188Z,98772.81
2022-12-14T09:41:33.502Z,98778.91
2022-12-14T09:44:16.237Z,98774.75
2022-12-14T09:46:44.473Z,98775.09
2022-12-14T09:49:42.416Z,98774.41
2022-12-14T09:52:17.685Z,98773.91
2022-12-14T09:54:50.008Z,98767.41
2022-12-14T09:57:39.344Z,98769.41
2022-12-14T10:00:14.752Z,98772.09
2022-12-14T10:03:19.535Z,98772.16
2022-12-14T10:06:02.121Z,98757.19
2022-12-14T10:08:38.393Z,98760.53
2022-12-14T10:11:23.153Z,98755.63
2022-12-14T10:14:02.052Z,98757.03
2022-12-14T10:16:37.954Z,98742.94
2022-12-14T10:19:28.667Z,98744.59
2022-12-14T10:22:02.943Z,98746.44
2022-12-14T10:24:50.919Z,98742.97
2022-12-14T10:27:26.369Z,98748.78
2022-12-14T10:29:58.886Z,98748.78
2022-12-14T10:32:33.249Z,98754.03
2022-12-14T10:35:16.397Z,98756.53
2022-12-14T10:37:53.656Z,98757.34
2022-12-14T10:40:33.770Z,98754.09
2022-12-14T10:43:18.152Z,98748.25
2022-12-14T10:46:02.346Z,98752.75
2022-12-14T10:48:52.731Z,98755.38
2022-12-14T10:51:26.500Z,98758.31
2022-12-14T10:54:02.702Z,98762.69
2022-12-14T10:56:33.119Z,98753.16
2022-12-14T10:59:25.923Z,98752.38
2022-12-14T11:02:16.871Z,98754.34
2022-12-14T11:04:55.831Z,98764.69
2022-12-14T11:07:26.029Z,98750.91
2022-12-14T11:09:52.593Z,98759.34
2022-12-14T11:12:28.639Z,98749.06
2022-12-14T11:15:01.233Z,98747.22
2022-12-14T11:17:35.849Z,98741.19
2022-12-14T11:20:16.017Z,98744.53
2022-12-14T11:22:50.916Z,98738.47
2022-12-14T11:25:42.317Z,98728.72
2022-12-14T11:28:53.226Z,98732.75
2022-12-14T11:31:40.326Z,98722.69
2022-12-14T11:34:39.357Z,98728.03
2022-12-14T11:37:22.055Z,98726.47
2022-12-14T11:40:07.248Z,98735.94
2022-12-14T11:42:34.013Z,98736.88
2022-12-14T11:45:39.616Z,98743.75
2022-12-14T11:48:18.807Z,98740.56
2022-12-14T11:50:47.121Z,98743.28
2022-12-14T11:53:19.383Z,98730.81
2022-12-14T11:55:57.367Z,98740.22
2022-12-14T11:58:29.035Z,98743.81
2022-12-14T12:01:00.271Z,98743.91
2022-12-14T12:03:36.559Z,98736.00
2022-12-14T12:06:10.211Z,98736.78
2022-12-14T12:08:39.788Z,98731.53
2022-12-14T12:11:19.406Z,98726.22
2022-12-14T12:13:50.797Z,98722.75
2022-12-14T12:16:21.012Z,98725.13
2022-12-14T12:19:19.317Z,98734.69
2022-12-14T12:21:46.049Z,98731.06
2022-12-14T12:25:23.726Z,98735.19
2022-12-14T12:27:37.029Z,98732.78
2022-12-14T12:30:28.613Z,98737.09
2022-12-14T12:32:57.601Z,98736.91
2022-12-14T12:35:45.413Z,98738.41
2022-12-14T12:38:43.539Z,98739.47
2022-12-14T12:41:30.456Z,98737.97
2022-12-14T12:43:59.861Z,98740.03
2022-12-14T12:46:30.004Z,98746.09
2022-12-14T12:49:07.082Z,98741.28
2022-12-14T12:51:46.789Z,98751.78
2022-12-14T12:54:18.537Z,98748.81
2022-12-14T12:56:49.492Z,98749.47
2022-12-14T12:59:26.752Z,98748.53
2022-12-14T13:01:57.045Z,98750.34
2022-12-14T13:04:32.357Z,98747.53
2022-12-14T13:07:13.889Z,98743.97
2022-12-14T13:09:49.679Z,98746.44
2022-12-14T13:12:37.674Z,98759.25
2022-12-14T13:15:18.037Z,98758.59
2022-12-14T13:17:50.812Z,98763.28
2022-12-14T13:20:24.408Z,98764.56
2022-12-14T13:22:51.760Z,98761.53
2022-12-14T13:25:24.126Z,98760.50
2022-12-14T13:28:10.922Z,98767.44
2022-12-14T13:31:09.466Z,98765.66
2022-12-14T13:33:56.738Z,98764.28
2022-12-14T13:36:37.041Z,98769.44
2022-12-14T13:39:21.684Z,98776.34
2022-12-14T13:42:00.401Z,98770.19
2022-12-14T13:44:47.888Z,98779.13
2022-12-14T13:47:20.028Z,98767.63
2022-12-14T13:50:33.701Z,98771.81
2022-12-14T13:52:45.328Z,98773.19
2022-12-14T13:55:30.094Z,98774.22
2022-12-14T13:58:13.186Z,98777.53
2022-12-14T14:00:45.650Z,98787.13
2022-12-14T14:03:33.868Z,98786.22
2022-12-14T14:06:12.244Z,98786.03
2022-12-14T14:08:42.431Z,98788.53
2022-12-14T14:11:37.874Z,98801.59
2022-12-14T14:14:43.533Z,98794.28
2022-12-14T14:17:23.236Z,98799.63
2022-12-14T14:19:53.289Z,98791.94
2022-12-14T14:22:25.523Z,98793.75
2022-12-14T14:24:58.695Z,98787.59
2022-12-14T14:27:37.058Z,98794.75
2022-12-14T14:30:25.590Z,98794.47
2022-12-14T14:32:54.220Z,98796.41
2022-12-14T14:35:26.707Z,98791.94
2022-12-14T14:38:02.617Z,98789.38
2022-12-14T14:41:07.010Z,98796.59
2022-12-14T14:43:32.399Z,98806.16
2022-12-14T14:46:04.300Z,98802.63
2022-12-14T14:48:36.973Z,98802.78
2022-12-14T14:51:25.312Z,98811.50
2022-12-14T14:57:59.274Z,98819.31
2022-12-14T15:00:26.058Z,98826.22
2022-12-14T15:02:54.126Z,98838.47
2022-12-14T15:05:43.359Z,98832.31
2022-12-14T15:08:34.164Z,98834.97
2022-12-14T15:11:05.450Z,98842.88
2022-12-14T15:13:53.782Z,98851.56
2022-12-14T15:16:28.456Z,98861.13
2022-12-14T15:18:55.399Z,98866.41
2022-12-14T15:21:21.917Z,98871.63
2022-12-14T15:23:52.767Z,98863.78
2022-12-14T15:26:32.869Z,98866.31
2022-12-14T15:29:00.970Z,98865.41
2022-12-14T15:31:38.228Z,98871.59
2022-12-14T15:34:04.756Z,98879.47
2022-12-14T15:36:35.363Z,98872.41
2022-12-14T15:39:01.789Z,98870.63
2022-12-14T15:41:30.224Z,98870.72
2022-12-14T15:44:00.058Z,98875.91
2022-12-14T15:46:34.361Z,98879.38
2022-12-14T15:49:03.842Z,98881.13
2022-12-14T15:51:37.539Z,98895.03
2022-12-14T15:54:07.067Z,98892.38
2022-12-14T15:56:39.581Z,98887.94
2022-12-14T15:59:42.622Z,98885.47
2022-12-14T16:02:24.173Z,98899.41
2022-12-14T16:04:52.296Z,98903.69
2022-12-14T16:07:25.845Z,98913.31
2022-12-14T16:09:57.486Z,98909.78
2022-12-14T16:12:45.121Z,98913.28
2022-12-14T16:15:19.670Z,98908.97
2022-12-14T16:17:46.418Z,98915.94
2022-12-14T16:20:22.850Z,98922.09
2022-12-14T16:23:05.110Z,98924.63
2022-12-14T16:25:35.013Z,98931.59
2022-12-14T16:28:39.864Z,98933.34
2022-12-14T16:31:17.892Z,98939.41
2022-12-14T16:33:44.777Z,98943.81
2022-12-14T16:36:20.152Z,98943.84
2022-12-14T16:38:59.836Z,98942.97
2022-12-14T16:41:41.940Z,98951.66
2022-12-14T16:44:20.312Z,98960.44
2022-12-14T16:47:15.431Z,98958.78
2022-12-14T16:50:03.804Z,98963.16
2022-12-14T16:52:35.689Z,98964.13
2022-12-14T16:55:20.146Z,98961.53
2022-12-14T16:57:49.250Z,98965.91
2022-12-14T17:00:31.971Z,98973.69
2022-12-14T17:03:18.641Z,98979.00
2022-12-14T17:05:52.812Z,98979.09
2022-12-14T17:08:19.460Z,98986.09
2022-12-14T17:10:45.910Z,98986.19
2022-12-14T17:13:12.299Z,98981.78
2022-12-14T17:15:56.140Z,98992.31
2022-12-14T17:18:25.833Z,98998.38
2022-12-14T17:20:52.261Z,98992.31
2022-12-14T17:23:18.872Z,98999.25
2022-12-14T17:25:47.859Z,98996.69
2022-12-14T17:28:24.224Z,98998.44
2022-12-14T17:30:57.297Z,99012.31
2022-12-14T17:33:28.825Z,99002.78
2022-12-14T17:35:55.734Z,99001.88
2022-12-14T17:38:23.248Z,99003.63
2022-12-14T17:40:51.181Z,99007.94
2022-12-14T17:43:24.238Z,99014.88
2022-12-14T17:45:51.036Z,99014.81
2022-12-14T17:48:17.688Z,99011.34
2022-12-14T17:50:48.376Z,99002.66
2022-12-14T17:53:17.760Z,99017.31
2022-12-14T17:55:44.455Z,99015.53
2022-12-14T17:58:11.313Z,99017.25
2022-12-14T18:00:56.583Z,99023.31
2022-12-14T18:03:23.154Z,99015.56
2022-12-14T18:05:50.187Z,99007.78
2022-12-14T18:08:17.856Z,99024.25
2022-12-14T18:10:45.080Z,99027.75
2022-12-14T18:13:12.973Z,99026.84
2022-12-14T18:15:49.622Z,99024.28
2022-12-14T18:18:21.497Z,99030.31
2022-12-14T18:20:54.626Z,99021.69
2022-12-14T18:23:21.761Z,99024.31
2022-12-14T18:25:52.507Z,99029.53
2022-12-14T18:28:20.063Z,99037.38
2022-12-14T18:30:51.091Z,99027.00
2022-12-14T18:33:21.011Z,99035.69
2022-12-14T18:35:49.204Z,99049.59
2022-12-14T18:38:15.736Z,99053.97
2022-12-14T18:40:47.802Z,99049.63
2022-12-14T18:43:25.936Z,99047.88
2022-12-14T18:45:53.981Z,99058.31
2022-12-14T18:48:22.136Z,99060.94
2022-12-14T18:50:49.909Z,99060.94
2022-12-14T18:53:22.123Z,99061.81
2022-12-14T18:55:49.350Z,99061.81
2022-12-14T18:58:18.375Z,99060.94
2022-12-14T19:00:45.445Z,99064.41
2022-12-14T19:03:12.008Z,99056.59
2022-12-14T19:05:38.751Z,99060.06
2022-12-14T19:08:05.335Z,99070.50
2022-12-14T19:10:32.175Z,99082.66
2022-12-14T19:12:59.141Z,99078.28
2022-12-14T19:15:31.200Z,99077.44
2022-12-14T19:17:57.629Z,99080.03
2022-12-14T19:20:25.706Z,99075.69
2022-12-14T19:22:52.563Z,99089.59
2022-12-14T19:25:20.539Z,99097.41
2022-12-14T19:30:34.638Z,99106.94
2022-12-14T19:33:01.309Z,99106.94
2022-12-14T19:35:27.877Z,99100.84
2022-12-14T19:37:54.257Z,99091.34
2022-12-14T19:40:21.326Z,99091.34
2022-12-14T19:42:47.709Z,99095.69
2022-12-14T19:45:14.932Z,99098.25
2022-12-14T19:47:43.878Z,99095.66
2022-12-14T19:50:13.106Z,99092.22
2022-12-14T19:52:39.557Z,99100.88
2022-12-14T19:55:06.169Z,99098.25
2022-12-14T19:57:32.629Z,99101.75
2022-12-14T20:00:00.103Z,99101.75
2022-12-14T20:02:26.831Z,99103.50
2022-12-14T20:04:53.401Z,99099.16
2022-12-14T20:07:19.790Z,99106.09
2022-12-14T20:09:46.237Z,99101.78
2022-12-14T20:12:12.704Z,99097.41
2022-12-14T20:14:40.039Z,99092.19
2022-12-14T20:17:11.061Z,99096.53
2022-12-14T20:19:38.884Z,99094.81
2022-12-14T20:22:06.502Z,99096.53
2022-12-14T20:24:33.189Z,99099.16
2022-12-14T20:26:59.701Z,99107.81
2022-12-14T20:29:27.451Z,99107.81
2022-12-14T20:31:55.301Z,99108.69
2022-12-14T20:34:22.068Z,99112.16
2022-12-14T20:36:48.584Z,99110.44
2022-12-14T20:39:14.971Z,99104.38
2022-12-14T20:41:41.416Z,99119.94
2022-12-14T20:44:11.706Z,99114.72
2022-12-14T20:46:40.930Z,99119.00
2022-12-14T20:49:11.888Z,99119.00
2022-12-14T20:51:39.068Z,99120.75
2022-12-14T20:54:08.992Z,99123.28
2022-12-14T20:56:36.044Z,99131.16
2022-12-14T20:59:03.004Z,99137.25
2022-12-14T21:01:29.734Z,99128.59
2022-12-14T21:04:00.593Z,99124.28
2022-12-14T21:06:27.237Z,99119.03
2022-12-14T21:09:05.520Z,99117.34
2022-12-14T21:11:59.421Z,99124.28
2022-12-14T21:14:28.813Z,99126.88
2022-12-14T21:16:55.325Z,99138.16
2022-12-14T21:19:21.880Z,99144.28
2022-12-14T21:21:53.459Z,99153.81
2022-12-14T21:24:44.822Z,99146.88
2022-12-14T21:27:09.710Z,99149.50
2022-12-14T21:29:36.211Z,99150.34
2022-12-14T21:32:04.102Z,99139.91
2022-12-14T21:34:30.608Z,99138.16
2022-12-14T21:36:57.038Z,99129.50
2022-12-14T21:39:23.529Z,99132.09
2022-12-14T21:42:08.509Z,99131.19
2022-12-14T21:44:36.582Z,99134.66
2022-12-14T21:47:05.725Z,99142.47
2022-12-14T21:49:32.217Z,99125.13
2022-12-14T21:51:59.156Z,99126.84
2022-12-14T21:54:26.057Z,99128.56
2022-12-14T21:57:10.903Z,99138.97
2022-12-14T21:59:42.069Z,99135.50
2022-12-14T22:02:13.643Z,99138.13
2022-12-14T22:04:40.261Z,99137.22
2022-12-14T22:07:06.732Z,99155.50
2022-12-14T22:09:33.118Z,99160.69
2022-12-14T22:11:59.488Z,99156.34
2022-12-14T22:14:25.892Z,99155.50
2022-12-14T22:16:52.600Z,99144.22
2022-12-14T22:19:24.064Z,99140.72
2022-12-14T22:21:52.145Z,99148.59
2022-12-14T22:24:20.545Z,99146.81
2022-12-14T22:26:47.146Z,99148.50
2022-12-14T22:29:14.986Z,99155.44
2022-12-14T22:31:41.751Z,99164.13
2022-12-14T22:34:10.134Z,99164.97
2022-12-14T22:36:36.481Z,99175.41
2022-12-14T22:39:02.937Z,99179.72
2022-12-14T22:41:29.362Z,99185.81
2022-12-14T22:43:59.662Z,99189.22
2022-12-14T22:46:27.412Z,99188.41
2022-12-14T22:48:54.356Z,99173.59
2022-12-14T22:51:21.538Z,99192.69
2022-12-14T22:53:49.612Z,99188.28
2022-12-14T22:56:34.429Z,99181.47
2022-12-14T22:59:16.068Z,99185.72
2022-12-14T23:01:43.686Z,99188.28
2022-12-14T23:04:16.340Z,99192.66
2022-12-14T23:06:42.821Z,99189.16
2022-12-14T23:09:27.794Z,99182.25
2022-12-14T23:12:13.470Z,99189.22
2022-12-14T23:14:58.968Z,99201.38
2022-12-14T23:17:44.157Z,99200.44
2022-12-14T23:20:29.449Z,99192.63
2022-12-14T23:23:14.080Z,99187.41
2022-12-14T23:25:59.558Z,99188.28
2022-12-14T23:28:44.442Z,99184.88
2022-12-14T23:31:35.208Z,99193.50
2022-12-14T23:34:20.168Z,99202.19
2022-12-14T23:37:04.963Z,99197.03
2022-12-14T23:39:49.690Z,99197.03
2022-12-14T23:42:34.769Z,99206.56
2022-12-14T23:45:19.806Z,99197.88
2022-12-14T23:48:04.780Z,99206.56
2022-12-14T23:50:49.380Z,99203.97
2022-12-14T23:53:34.491Z,99209.19
2022-12-14T23:56:19.459Z,99205.72
2022-12-14T23:59:04.316Z,99212.56
